createdAt,value
2018-05-03T00:00:37.185Z,54.40
2018-05-03T00:03:04.624Z,54.80
2018-05-03T00:05:32.589Z,54.90
2018-05-03T00:08:00.154Z,55.00
2018-05-03T00:10:27.683Z,55.00
2018-05-03T00:12:55.519Z,55.20
2018-05-03T00:15:23.099Z,54.90
2018-05-03T00:17:50.887Z,55.40
2018-05-03T00:20:18.969Z,55.90
2018-05-03T00:22:46.435Z,56.10
2018-05-03T00:25:15.062Z,56.40
2018-05-03T00:27:42.837Z,56.40
2018-05-03T00:30:11.066Z,56.90
2018-05-03T00:32:38.929Z,56.90
2018-05-03T00:35:07.805Z,56.30
2018-05-03T00:37:35.284Z,56.60
2018-05-03T00:40:04.122Z,56.80
2018-05-03T00:42:32.876Z,56.40
2018-05-03T00:45:00.601Z,56.40
2018-05-03T00:47:28.872Z,55.80
2018-05-03T00:49:56.350Z,55.90
2018-05-03T00:52:23.830Z,55.10
2018-05-03T00:54:51.858Z,56.40
2018-05-03T00:57:19.519Z,56.80
2018-05-03T00:59:47.018Z,56.50
2018-05-03T01:02:15.798Z,56.50
2018-05-03T01:04:44.535Z,57.30
2018-05-03T01:07:11.989Z,57.30
2018-05-03T01:09:40.189Z,57.60
2018-05-03T01:12:07.626Z,57.90
2018-05-03T01:14:35.491Z,57.60
2018-05-03T01:17:03.003Z,57.30
2018-05-03T01:19:30.970Z,57.90
2018-05-03T01:21:58.739Z,58.00
2018-05-03T01:24:28.355Z,58.10
2018-05-03T01:26:57.246Z,58.00
2018-05-03T01:29:25.114Z,58.20
2018-05-03T01:31:55.026Z,58.10
2018-05-03T01:34:22.607Z,58.00
2018-05-03T01:36:50.488Z,57.80
2018-05-03T01:39:18.356Z,58.10
2018-05-03T01:41:46.304Z,58.50
2018-05-03T01:44:13.753Z,58.40
2018-05-03T01:46:41.244Z,58.70
2018-05-03T01:49:08.730Z,58.90
2018-05-03T01:51:37.285Z,59.10
2018-05-03T01:54:05.240Z,59.00
2018-05-03T01:56:32.720Z,59.20
2018-05-03T01:59:01.010Z,59.30
2018-05-03T02:01:29.407Z,59.40
2018-05-03T02:03:57.946Z,59.40
2018-05-03T02:06:25.638Z,59.50
2018-05-03T02:08:54.312Z,59.90
2018-05-03T02:11:23.987Z,60.00
2018-05-03T02:13:51.467Z,60.00
2018-05-03T02:16:19.173Z,60.00
2018-05-03T02:18:47.107Z,60.50
2018-05-03T02:21:15.335Z,60.30
2018-05-03T02:23:43.953Z,60.30
2018-05-03T02:26:12.302Z,60.60
2018-05-03T02:28:40.047Z,60.40
2018-05-03T02:31:07.480Z,60.70
2018-05-03T02:33:35.087Z,60.90
2018-05-03T02:36:02.979Z,61.10
2018-05-03T02:38:31.475Z,61.60
2018-05-03T02:41:01.998Z,61.40
2018-05-03T02:43:29.685Z,61.40
2018-05-03T02:45:57.198Z,61.60
2018-05-03T02:48:26.161Z,61.60
2018-05-03T02:50:53.726Z,61.70
2018-05-03T02:53:21.515Z,61.90
2018-05-03T02:55:49.401Z,62.50
2018-05-03T02:58:29.472Z,62.30
2018-05-03T03:01:14.771Z,62.20
2018-05-03T03:04:00.085Z,62.30
2018-05-03T03:06:47.229Z,63.00
2018-05-03T03:09:33.198Z,63.00
2018-05-03T03:12:27.707Z,62.90
2018-05-03T03:18:11.807Z,63.20
2018-05-03T03:20:57.462Z,63.60
2018-05-03T03:23:43.521Z,62.90
2018-05-03T03:26:42.378Z,63.00
2018-05-03T03:29:28.027Z,62.90
2018-05-03T03:32:13.268Z,62.50
2018-05-03T03:34:40.715Z,62.30
2018-05-03T03:37:32.549Z,62.30
2018-05-03T03:40:18.298Z,62.60
2018-05-03T03:43:15.914Z,62.70
2018-05-03T03:45:43.926Z,62.70
2018-05-03T03:48:11.420Z,62.20
2018-05-03T03:50:39.850Z,63.00
2018-05-03T03:53:08.213Z,62.50
2018-05-03T03:55:37.100Z,62.50
2018-05-03T03:58:04.553Z,62.60
2018-05-03T04:00:33.207Z,62.70
2018-05-03T04:03:01.241Z,62.70
2018-05-03T04:05:30.269Z,62.60
2018-05-03T04:07:57.721Z,62.50
2018-05-03T04:10:27.180Z,62.80
2018-05-03T04:12:56.162Z,63.20
2018-05-03T04:15:23.794Z,63.20
2018-05-03T04:18:03.220Z,63.50
2018-05-03T04:20:52.713Z,63.90
2018-05-03T04:23:26.817Z,64.20
2018-05-03T04:26:07.544Z,64.50
2018-05-03T04:28:35.373Z,64.90
2018-05-03T04:31:02.996Z,65.00
2018-05-03T04:33:30.894Z,65.10
2018-05-03T04:35:59.701Z,65.40
2018-05-03T04:38:27.255Z,65.40
2018-05-03T04:40:55.267Z,65.40
2018-05-03T04:43:22.735Z,65.70
2018-05-03T04:45:50.527Z,65.60
2018-05-03T04:48:18.781Z,65.90
2018-05-03T04:50:46.302Z,65.90
2018-05-03T04:53:13.778Z,65.90
2018-05-03T04:55:41.632Z,65.70
2018-05-03T04:58:09.271Z,65.20
2018-05-03T05:00:37.571Z,64.50
2018-05-03T05:03:07.617Z,64.20
2018-05-03T05:05:35.599Z,64.20
2018-05-03T05:08:03.716Z,63.70
2018-05-03T05:10:32.476Z,63.50
2018-05-03T05:13:00.711Z,63.10
2018-05-03T05:15:28.189Z,62.90
2018-05-03T05:17:58.521Z,62.80
2018-05-03T05:20:26.653Z,62.40
2018-05-03T05:22:54.292Z,61.50
2018-05-03T05:25:21.779Z,61.10
2018-05-03T05:27:49.509Z,61.00
2018-05-03T05:30:17.249Z,60.70
2018-05-03T05:32:48.181Z,60.70
2018-05-03T05:35:16.212Z,60.50
2018-05-03T05:37:43.979Z,60.20
2018-05-03T05:40:11.849Z,60.70
2018-05-03T05:42:40.323Z,60.60
2018-05-03T05:45:08.650Z,60.00
2018-05-03T05:47:39.493Z,60.00
2018-05-03T05:50:07.771Z,60.20
2018-05-03T05:52:36.428Z,60.30
2018-05-03T05:55:04.431Z,60.20
2018-05-03T05:57:33.364Z,59.70
2018-05-03T06:00:01.632Z,59.70
2018-05-03T06:02:31.787Z,59.20
2018-05-03T06:04:59.933Z,59.30
2018-05-03T06:07:27.979Z,59.10
2018-05-03T06:09:55.612Z,59.20
2018-05-03T06:12:25.018Z,59.50
2018-05-03T06:14:52.462Z,59.50
2018-05-03T06:17:19.934Z,59.10
2018-05-03T06:19:47.784Z,59.20
2018-05-03T06:22:15.677Z,58.10
2018-05-03T06:24:43.236Z,57.80
2018-05-03T06:27:11.227Z,58.00
2018-05-03T06:29:39.768Z,57.80
2018-05-03T06:32:08.574Z,57.90
2018-05-03T06:34:36.511Z,57.90
2018-05-03T06:37:04.656Z,57.10
2018-05-03T06:39:32.229Z,57.20
2018-05-03T06:42:00.266Z,56.80
2018-05-03T06:44:27.825Z,57.10
2018-05-03T06:46:55.742Z,56.70
2018-05-03T06:49:23.175Z,55.80
2018-05-03T06:51:50.659Z,55.70
2018-05-03T06:54:19.488Z,55.30
2018-05-03T06:56:46.971Z,55.20
2018-05-03T06:59:14.409Z,55.40
2018-05-03T07:01:42.503Z,55.00
2018-05-03T07:04:11.213Z,54.20
2018-05-03T07:06:39.343Z,53.60
2018-05-03T07:09:07.167Z,53.60
2018-05-03T07:11:35.399Z,53.90
2018-05-03T07:14:06.417Z,53.70
2018-05-03T07:16:33.902Z,53.00
2018-05-03T07:19:02.012Z,52.60
2018-05-03T07:21:29.514Z,53.30
2018-05-03T07:23:57.075Z,53.00
2018-05-03T07:26:24.565Z,52.20
2018-05-03T07:28:54.944Z,52.50
2018-05-03T07:31:22.655Z,53.40
2018-05-03T07:33:50.874Z,52.80
2018-05-03T07:36:19.324Z,52.70
2018-05-03T07:38:47.888Z,52.20
2018-05-03T07:41:15.868Z,52.10
2018-05-03T07:43:46.355Z,51.80
2018-05-03T07:46:14.340Z,51.40
2018-05-03T07:48:41.870Z,50.00
2018-05-03T07:51:09.308Z,51.30
2018-05-03T07:53:37.768Z,52.30
2018-05-03T07:56:05.233Z,51.70
2018-05-03T07:58:33.712Z,52.00
2018-05-03T08:01:01.189Z,52.00
2018-05-03T08:03:28.943Z,51.70
2018-05-03T08:05:57.167Z,51.80
2018-05-03T08:08:24.719Z,51.90
2018-05-03T08:10:52.163Z,53.20
2018-05-03T08:13:20.135Z,52.60
2018-05-03T08:15:47.582Z,52.70
2018-05-03T08:18:15.299Z,51.50
2018-05-03T08:20:43.942Z,51.90
2018-05-03T08:23:11.408Z,51.90
2018-05-03T08:25:38.850Z,51.80
2018-05-03T08:28:06.322Z,50.90
2018-05-03T08:30:34.059Z,51.60
2018-05-03T08:33:01.546Z,52.40
2018-05-03T08:35:29.512Z,52.20
2018-05-03T08:37:57.093Z,51.90
2018-05-03T08:40:25.296Z,52.90
2018-05-03T08:42:52.775Z,52.70
2018-05-03T08:45:20.376Z,52.30
2018-05-03T08:47:48.585Z,50.60
2018-05-03T08:50:16.118Z,51.10
2018-05-03T08:52:44.459Z,51.40
2018-05-03T08:55:12.219Z,51.40
2018-05-03T08:57:39.687Z,50.30
2018-05-03T09:00:07.339Z,50.80
2018-05-03T09:02:34.792Z,53.30
2018-05-03T09:05:02.539Z,51.50
2018-05-03T09:07:29.985Z,51.30
2018-05-03T09:09:57.428Z,51.60
2018-05-03T09:12:24.867Z,50.50
2018-05-03T09:14:53.347Z,48.50
2018-05-03T09:17:21.663Z,47.80
2018-05-03T09:19:49.654Z,47.70
2018-05-03T09:22:17.154Z,45.70
2018-05-03T09:24:45.568Z,46.10
2018-05-03T09:27:13.048Z,45.50
2018-05-03T09:29:40.953Z,45.10
2018-05-03T09:32:09.195Z,44.60
2018-05-03T09:34:36.720Z,44.50
2018-05-03T09:37:04.569Z,42.90
2018-05-03T09:39:32.017Z,43.10
2018-05-03T09:42:00.611Z,42.00
2018-05-03T09:44:28.060Z,42.00
2018-05-03T09:46:56.380Z,42.00
2018-05-03T09:49:24.246Z,42.00
2018-05-03T09:51:51.721Z,42.00
2018-05-03T09:54:19.654Z,41.90
2018-05-03T09:56:47.115Z,44.90
2018-05-03T09:59:14.561Z,45.80
2018-05-03T10:01:42.147Z,44.40
2018-05-03T10:04:10.122Z,44.90
2018-05-03T10:06:37.593Z,45.40
2018-05-03T10:09:05.463Z,43.30
2018-05-03T10:11:32.934Z,41.60
2018-05-03T10:14:01.167Z,41.40
2018-05-03T10:16:29.272Z,41.30
2018-05-03T10:18:57.242Z,41.70
2018-05-03T10:21:25.451Z,41.00
2018-05-03T10:23:52.923Z,41.00
2018-05-03T10:26:21.133Z,39.60
2018-05-03T10:28:48.744Z,38.50
2018-05-03T10:31:16.187Z,37.90
2018-05-03T10:33:44.520Z,38.00
2018-05-03T10:36:12.572Z,38.00
2018-05-03T10:38:39.965Z,38.80
2018-05-03T10:41:07.973Z,41.90
2018-05-03T10:43:35.419Z,42.90
2018-05-03T10:46:04.289Z,36.90
2018-05-03T10:48:32.580Z,37.30
2018-05-03T10:51:00.837Z,38.10
2018-05-03T10:53:30.273Z,38.60
2018-05-03T10:55:57.761Z,38.80
2018-05-03T10:58:25.298Z,37.80
2018-05-03T11:00:52.754Z,39.30
2018-05-03T11:03:21.043Z,37.40
2018-05-03T11:05:48.832Z,35.50
2018-05-03T11:08:16.264Z,33.90
2018-05-03T11:10:43.851Z,34.00
2018-05-03T11:13:13.215Z,36.80
2018-05-03T11:15:41.776Z,36.10
2018-05-03T11:18:09.256Z,36.30
2018-05-03T11:20:37.831Z,33.90
2018-05-03T11:23:05.331Z,34.10
2018-05-03T11:25:33.390Z,36.20
2018-05-03T11:28:00.841Z,33.80
2018-05-03T11:30:28.394Z,32.90
2018-05-03T11:32:55.887Z,34.40
2018-05-03T11:35:23.705Z,35.30
2018-05-03T11:37:51.156Z,36.90
2018-05-03T11:40:18.657Z,37.80
2018-05-03T11:42:46.406Z,38.20
2018-05-03T11:45:13.831Z,38.50
2018-05-03T11:47:41.372Z,39.00
2018-05-03T11:50:09.084Z,38.70
2018-05-03T11:52:36.503Z,35.50
2018-05-03T11:55:04.345Z,35.50
2018-05-03T11:57:31.907Z,34.20
2018-05-03T11:59:59.745Z,34.50
2018-05-03T12:02:27.273Z,34.00
2018-05-03T12:04:55.046Z,35.00
2018-05-03T12:07:22.589Z,35.00
2018-05-03T12:09:50.032Z,34.60
2018-05-03T12:12:17.824Z,35.20
2018-05-03T12:14:45.283Z,35.00
2018-05-03T12:17:12.773Z,34.60
2018-05-03T12:19:40.526Z,33.30
2018-05-03T12:22:08.049Z,32.70
2018-05-03T12:24:35.511Z,32.40
2018-05-03T12:27:02.984Z,33.30
2018-05-03T12:29:30.422Z,34.30
2018-05-03T12:31:58.094Z,35.30
2018-05-03T12:34:25.554Z,36.10
2018-05-03T12:36:53.535Z,36.10
2018-05-03T12:39:21.452Z,37.40
2018-05-03T12:41:49.467Z,37.80
2018-05-03T12:44:17.843Z,33.60
2018-05-03T12:46:45.390Z,33.80
2018-05-03T12:49:12.855Z,35.80
2018-05-03T12:51:40.365Z,34.80
2018-05-03T12:54:08.290Z,35.20
2018-05-03T12:56:35.848Z,34.30
2018-05-03T12:59:03.316Z,34.50
2018-05-03T13:01:31.516Z,33.70
2018-05-03T13:03:59.752Z,34.50
2018-05-03T13:06:27.712Z,34.50
2018-05-03T13:08:55.184Z,34.90
2018-05-03T13:11:23.354Z,36.40
2018-05-03T13:13:50.787Z,35.50
2018-05-03T13:16:18.346Z,35.60
2018-05-03T13:18:46.323Z,34.00
2018-05-03T13:21:14.116Z,32.20
2018-05-03T13:23:41.605Z,32.20
2018-05-03T13:26:09.079Z,32.30
2018-05-03T13:28:37.496Z,34.70
2018-05-03T13:31:04.950Z,33.80
2018-05-03T13:33:32.611Z,33.20
2018-05-03T13:36:00.803Z,30.90
2018-05-03T13:38:28.303Z,31.90
2018-05-03T13:40:56.322Z,31.40
2018-05-03T13:43:24.081Z,28.70
2018-05-03T13:45:52.286Z,31.60
2018-05-03T13:48:20.575Z,32.30
2018-05-03T13:50:49.184Z,31.60
2018-05-03T13:53:16.677Z,31.60
2018-05-03T13:55:44.466Z,33.10
2018-05-03T13:58:12.711Z,32.60
2018-05-03T14:00:40.576Z,32.50
2018-05-03T14:03:08.039Z,31.20
2018-05-03T14:05:37.333Z,30.90
2018-05-03T14:08:04.775Z,30.90
2018-05-03T14:10:32.305Z,30.90
2018-05-03T14:12:59.865Z,31.10
2018-05-03T14:15:27.384Z,31.00
2018-05-03T14:17:54.855Z,31.70
2018-05-03T14:20:22.790Z,32.20
2018-05-03T14:22:50.529Z,31.70
2018-05-03T14:25:17.987Z,32.10
2018-05-03T14:27:45.432Z,30.40
2018-05-03T14:30:12.985Z,32.90
2018-05-03T14:32:40.891Z,29.80
2018-05-03T14:35:08.921Z,29.60
2018-05-03T14:37:36.366Z,30.90
2018-05-03T14:40:04.597Z,30.60
2018-05-03T14:42:32.377Z,30.50
2018-05-03T14:44:59.846Z,30.90
2018-05-03T14:47:28.794Z,32.40
2018-05-03T14:49:56.690Z,32.30
2018-05-03T14:52:24.269Z,33.30
2018-05-03T14:54:52.873Z,31.50
2018-05-03T14:57:21.063Z,31.30
2018-05-03T14:59:48.538Z,31.30
2018-05-03T15:02:16.001Z,31.50
2018-05-03T15:04:44.117Z,31.70
2018-05-03T15:07:12.354Z,31.10
2018-05-03T15:09:39.809Z,31.00
2018-05-03T15:12:07.291Z,31.90
2018-05-03T15:14:34.854Z,31.40
2018-05-03T15:17:03.255Z,31.00
2018-05-03T15:19:31.294Z,31.00
2018-05-03T15:21:58.777Z,31.80
2018-05-03T15:24:27.004Z,32.00
2018-05-03T15:26:54.530Z,32.00
2018-05-03T15:29:22.593Z,32.50
2018-05-03T15:31:50.051Z,32.60
2018-05-03T15:34:17.513Z,32.90
2018-05-03T15:36:45.555Z,31.00
2018-05-03T15:39:13.863Z,31.50
2018-05-03T15:41:41.798Z,31.40
2018-05-03T15:44:10.246Z,31.60
2018-05-03T15:46:38.118Z,31.50
2018-05-03T15:49:05.571Z,29.90
2018-05-03T15:51:33.130Z,30.00
2018-05-03T15:54:00.938Z,30.40
2018-05-03T15:56:29.210Z,29.10
2018-05-03T15:58:56.711Z,29.00
2018-05-03T16:01:24.172Z,29.70
2018-05-03T16:03:51.693Z,30.70
2018-05-03T16:06:19.679Z,30.80
2018-05-03T16:08:47.140Z,30.40
2018-05-03T16:11:14.591Z,32.00
2018-05-03T16:13:42.084Z,32.10
2018-05-03T16:16:09.550Z,31.40
2018-05-03T16:18:37.012Z,31.30
2018-05-03T16:21:04.928Z,31.60
2018-05-03T16:23:33.511Z,30.40
2018-05-03T16:26:00.971Z,30.30
2018-05-03T16:28:28.457Z,30.60
2018-05-03T16:30:55.950Z,31.10
2018-05-03T16:33:24.247Z,31.50
2018-05-03T16:35:52.216Z,31.00
2018-05-03T16:38:19.797Z,30.70
2018-05-03T16:40:47.682Z,31.10
2018-05-03T16:43:16.277Z,31.20
2018-05-03T16:45:44.895Z,30.10
2018-05-03T16:48:13.208Z,31.70
2018-05-03T16:50:40.676Z,31.70
2018-05-03T16:53:08.168Z,32.10
2018-05-03T16:55:36.195Z,32.70
2018-05-03T16:58:03.661Z,32.30
2018-05-03T17:00:31.113Z,31.80
2018-05-03T17:02:58.576Z,31.60
2018-05-03T17:05:26.372Z,32.30
2018-05-03T17:07:53.852Z,32.40
2018-05-03T17:10:21.298Z,33.00
2018-05-03T17:12:49.569Z,32.70
2018-05-03T17:15:17.803Z,32.30
2018-05-03T17:17:45.353Z,32.80
2018-05-03T17:20:13.464Z,32.70
2018-05-03T17:22:41.510Z,32.80
2018-05-03T17:25:08.963Z,33.30
2018-05-03T17:27:36.853Z,33.40
2018-05-03T17:30:04.321Z,33.70
2018-05-03T17:32:31.837Z,34.20
2018-05-03T17:34:59.894Z,34.10
2018-05-03T17:37:27.480Z,34.00
2018-05-03T17:39:54.948Z,34.80
2018-05-03T17:42:23.535Z,34.80
2018-05-03T17:44:50.977Z,35.30
2018-05-03T17:47:18.461Z,35.40
2018-05-03T17:49:46.221Z,35.40
2018-05-03T17:52:13.681Z,35.60
2018-05-03T17:54:42.339Z,35.40
2018-05-03T17:57:09.806Z,35.20
2018-05-03T17:59:37.289Z,36.00
2018-05-03T18:02:04.728Z,35.80
2018-05-03T18:04:32.670Z,35.80
2018-05-03T18:07:00.133Z,35.80
2018-05-03T18:09:27.616Z,36.10
2018-05-03T18:11:55.140Z,35.20
2018-05-03T18:14:22.612Z,35.40
2018-05-03T18:16:52.322Z,35.40
2018-05-03T18:19:20.174Z,35.40
2018-05-03T18:21:47.639Z,35.40
2018-05-03T18:24:15.312Z,36.00
2018-05-03T18:26:43.424Z,36.00
2018-05-03T18:29:11.308Z,36.50
2018-05-03T18:31:38.829Z,36.60
2018-05-03T18:34:07.208Z,37.60
2018-05-03T18:36:37.185Z,38.10
2018-05-03T18:39:04.713Z,38.10
2018-05-03T18:41:32.650Z,38.20
2018-05-03T18:44:01.355Z,39.00
2018-05-03T18:46:29.620Z,39.40
2018-05-03T18:48:57.067Z,39.30
2018-05-03T18:51:25.548Z,39.20
2018-05-03T18:53:54.188Z,38.90
2018-05-03T18:56:22.729Z,38.90
2018-05-03T18:58:51.004Z,39.40
2018-05-03T19:01:19.862Z,39.60
2018-05-03T19:03:47.290Z,39.50
2018-05-03T19:06:15.356Z,39.70
2018-05-03T19:08:43.162Z,40.10
2018-05-03T19:11:11.382Z,41.30
2018-05-03T19:13:39.598Z,40.80
2018-05-03T19:16:07.578Z,40.90
2018-05-03T19:18:36.219Z,41.30
2018-05-03T19:21:05.065Z,41.30
2018-05-03T19:23:33.779Z,41.80
2018-05-03T19:26:01.823Z,41.70
2018-05-03T19:28:30.121Z,42.10
2018-05-03T19:30:57.642Z,42.00
2018-05-03T19:33:26.518Z,42.90
2018-05-03T19:35:55.294Z,42.90
2018-05-03T19:38:22.891Z,42.90
2018-05-03T19:40:51.123Z,43.30
2018-05-03T19:43:19.386Z,43.70
2018-05-03T19:45:47.138Z,43.90
2018-05-03T19:48:14.731Z,44.40
2018-05-03T19:50:42.577Z,44.10
2018-05-03T19:53:10.103Z,44.10
2018-05-03T19:55:39.135Z,44.50
2018-05-03T19:58:06.905Z,44.50
2018-05-03T20:00:34.600Z,44.20
2018-05-03T20:03:02.670Z,44.30
2018-05-03T20:05:31.247Z,44.60
2018-05-03T20:07:58.953Z,44.80
2018-05-03T20:10:27.079Z,45.80
2018-05-03T20:12:54.582Z,45.40
2018-05-03T20:15:22.921Z,45.50
2018-05-03T20:17:51.022Z,46.20
2018-05-03T20:20:19.005Z,46.40
2018-05-03T20:22:46.668Z,46.40
2018-05-03T20:25:14.183Z,46.50
2018-05-03T20:27:43.021Z,47.20
2018-05-03T20:30:10.585Z,46.60
2018-05-03T20:32:38.205Z,46.70
2018-05-03T20:35:07.325Z,47.30
2018-05-03T20:37:34.842Z,47.30
2018-05-03T20:40:03.362Z,47.70
2018-05-03T20:42:31.283Z,47.50
2018-05-03T20:44:59.282Z,47.70
2018-05-03T20:47:26.842Z,47.90
2018-05-03T20:49:54.359Z,48.30
2018-05-03T20:52:24.652Z,48.20
2018-05-03T20:54:52.805Z,48.30
2018-05-03T20:57:21.478Z,48.60
2018-05-03T20:59:50.611Z,49.10
2018-05-03T21:02:19.034Z,49.00
2018-05-03T21:04:47.656Z,49.40
2018-05-03T21:07:15.154Z,49.40
2018-05-03T21:09:43.185Z,49.40
2018-05-03T21:12:10.675Z,49.70
2018-05-03T21:14:38.179Z,49.60
2018-05-03T21:17:06.959Z,49.20
2018-05-03T21:19:35.467Z,49.20
2018-05-03T21:22:02.960Z,49.00
2018-05-03T21:24:30.424Z,49.20
2018-05-03T21:26:57.923Z,49.00
2018-05-03T21:29:25.421Z,49.20
2018-05-03T21:31:52.879Z,49.30
2018-05-03T21:34:20.646Z,49.40
2018-05-03T21:36:48.507Z,49.40
2018-05-03T21:39:16.313Z,49.40
2018-05-03T21:41:45.050Z,49.80
2018-05-03T21:44:13.012Z,49.80
2018-05-03T21:46:40.488Z,49.90
2018-05-03T21:49:08.607Z,50.00
2018-05-03T21:51:36.822Z,50.40
2018-05-03T21:54:05.619Z,50.40
2018-05-03T21:56:33.108Z,50.30
2018-05-03T21:59:01.491Z,50.50
2018-05-03T22:01:30.218Z,50.70
2018-05-03T22:03:57.825Z,50.70
2018-05-03T22:06:26.452Z,50.90
2018-05-03T22:08:53.899Z,50.90
2018-05-03T22:11:22.155Z,51.30
2018-05-03T22:13:51.230Z,51.50
2018-05-03T22:16:18.661Z,51.40
2018-05-03T22:18:46.783Z,51.60
2018-05-03T22:21:16.710Z,51.80
2018-05-03T22:23:44.498Z,51.70
2018-05-03T22:26:12.230Z,51.70
2018-05-03T22:28:39.818Z,51.80
2018-05-03T22:31:07.364Z,52.00
2018-05-03T22:33:34.836Z,52.00
2018-05-03T22:36:06.172Z,52.40
2018-05-03T22:38:33.663Z,52.40
2018-05-03T22:41:01.819Z,52.40
2018-05-03T22:43:29.836Z,52.50
2018-05-03T22:45:59.229Z,52.70
2018-05-03T22:48:27.009Z,52.60
2018-05-03T22:50:55.454Z,53.00
2018-05-03T22:53:23.136Z,52.90
2018-05-03T22:55:52.223Z,53.10
2018-05-03T22:58:21.283Z,53.10
2018-05-03T23:00:48.790Z,53.50
2018-05-03T23:03:17.036Z,53.40
2018-05-03T23:05:44.965Z,53.40
2018-05-03T23:08:12.630Z,53.70
2018-05-03T23:10:40.359Z,53.70
2018-05-03T23:13:08.597Z,54.00
2018-05-03T23:15:36.084Z,53.90
2018-05-03T23:18:04.421Z,54.10
2018-05-03T23:20:32.600Z,54.10
2018-05-03T23:23:00.078Z,54.20
2018-05-03T23:25:29.091Z,54.40
2018-05-03T23:27:57.301Z,54.80
2018-05-03T23:30:24.857Z,54.80
2018-05-03T23:32:52.962Z,54.90
2018-05-03T23:35:20.950Z,55.30
2018-05-03T23:37:48.420Z,55.40
2018-05-03T23:40:16.664Z,55.40
2018-05-03T23:42:44.451Z,55.40
2018-05-03T23:45:12.088Z,55.40
2018-05-03T23:47:39.619Z,55.40
2018-05-03T23:50:07.108Z,55.50
2018-05-03T23:52:34.639Z,55.50
2018-05-03T23:55:02.776Z,55.60
2018-05-03T23:57:30.578Z,55.80
2018-05-03T23:59:58.657Z,55.80
